Erwin, South Dakota
Current Conditions -  °F | °C
As of 7:53 PM on Thursday 20 Nov 2014 (Local Time) from KATY Reporting Station
Clear Clear  
Wind Chill: -8°   Ceiling: Unl
Heat Index:   Visibility: 10mi
Dew Point: -2°   Wind: 5mph
Humidity: 83%   Direction: 170°S
Pressure: 30.11"   Gusts: NA
Location:  44.49°N, 97.45°W
Report Text: KATY 210153Z AUTO 17004KT 10SM CLR M17/M19 A3011 RMK AO2 SLP241 T11671189
Loading
Personal Weather Stations






























Interactive Weather Map New forecast layout! Learn more

10-Day Weather Forecast

Advertisements
Track Severe Weather on mobile